sensor_id;sensor_type;location;lat;lon;timestamp;pressure;altitude;pressure_sealevel;temperature;humidity
15308;BME280;7755;52.208;6.964;2023-08-12T00:02:07;101394.31;;;22.09;100.00
15308;BME280;7755;52.208;6.964;2023-08-12T00:06:10;101386.13;;;21.99;100.00
15308;BME280;7755;52.208;6.964;2023-08-12T00:10:13;101379.38;;;21.86;100.00
15308;BME280;7755;52.208;6.964;2023-08-12T00:14:17;101379.69;;;21.85;100.00
15308;BME280;7755;52.208;6.964;2023-08-12T00:18:22;101377.53;;;21.82;100.00
15308;BME280;7755;52.208;6.964;2023-08-12T00:22:25;101374.16;;;21.85;100.00
15308;BME280;7755;52.208;6.964;2023-08-12T00:26:28;101370.56;;;21.84;100.00
15308;BME280;7755;52.208;6.964;2023-08-12T00:30:32;101368.63;;;21.85;100.00
15308;BME280;7755;52.208;6.964;2023-08-12T00:34:35;101379.69;;;21.85;100.00
15308;BME280;7755;52.208;6.964;2023-08-12T00:38:39;101372.19;;;21.85;100.00
15308;BME280;7755;52.208;6.964;2023-08-12T00:42:41;101349.31;;;21.79;100.00
15308;BME280;7755;52.208;6.964;2023-08-12T00:46:46;101366.22;;;21.78;100.00
15308;BME280;7755;52.208;6.964;2023-08-12T00:50:49;101356.78;;;21.79;100.00
15308;BME280;7755;52.208;6.964;2023-08-12T00:54:52;101338.91;;;21.71;100.00
15308;BME280;7755;52.208;6.964;2023-08-12T00:58:55;101353.88;;;21.70;100.00
15308;BME280;7755;52.208;6.964;2023-08-12T01:03:00;101354.41;;;21.72;100.00
15308;BME280;7755;52.208;6.964;2023-08-12T01:07:03;101343.00;;;21.74;100.00
15308;BME280;7755;52.208;6.964;2023-08-12T01:11:12;101333.88;;;21.73;100.00
15308;BME280;7755;52.208;6.964;2023-08-12T01:15:20;101326.72;;;21.72;100.00
15308;BME280;7755;52.208;6.964;2023-08-12T01:19:31;101320.34;;;21.72;100.00
15308;BME280;7755;52.208;6.964;2023-08-12T01:23:36;101310.41;;;21.71;100.00
15308;BME280;7755;52.208;6.964;2023-08-12T01:27:40;101306.00;;;21.70;100.00
15308;BME280;7755;52.208;6.964;2023-08-12T01:31:48;101288.28;;;21.71;100.00
15308;BME280;7755;52.208;6.964;2023-08-12T01:35:58;101276.25;;;21.62;100.00
15308;BME280;7755;52.208;6.964;2023-08-12T01:40:06;101277.34;;;21.61;100.00
15308;BME280;7755;52.208;6.964;2023-08-12T01:44:11;101275.19;;;21.58;100.00
15308;BME280;7755;52.208;6.964;2023-08-12T01:48:14;101266.91;;;21.58;100.00
15308;BME280;7755;52.208;6.964;2023-08-12T01:52:17;101264.63;;;21.60;100.00
15308;BME280;7755;52.208;6.964;2023-08-12T01:56:21;101263.50;;;21.61;100.00
15308;BME280;7755;52.208;6.964;2023-08-12T02:00:25;101265.19;;;21.62;100.00
15308;BME280;7755;52.208;6.964;2023-08-12T02:04:27;101254.63;;;21.64;100.00
15308;BME280;7755;52.208;6.964;2023-08-12T02:08:30;101251.03;;;21.63;100.00
15308;BME280;7755;52.208;6.964;2023-08-12T02:12:35;101247.44;;;21.63;100.00
15308;BME280;7755;52.208;6.964;2023-08-12T02:16:37;101255.81;;;21.58;100.00
15308;BME280;7755;52.208;6.964;2023-08-12T02:20:40;101268.16;;;21.46;100.00
15308;BME280;7755;52.208;6.964;2023-08-12T02:24:44;101263.25;;;21.43;100.00
15308;BME280;7755;52.208;6.964;2023-08-12T02:28:48;101262.19;;;21.39;100.00
15308;BME280;7755;52.208;6.964;2023-08-12T02:32:51;101265.31;;;21.33;100.00
15308;BME280;7755;52.208;6.964;2023-08-12T02:36:54;101267.81;;;21.34;100.00
15308;BME280;7755;52.208;6.964;2023-08-12T02:40:56;101265.56;;;21.36;100.00
15308;BME280;7755;52.208;6.964;2023-08-12T02:45:01;101260.34;;;21.35;100.00
15308;BME280;7755;52.208;6.964;2023-08-12T02:49:04;101251.22;;;21.34;100.00
15308;BME280;7755;52.208;6.964;2023-08-12T02:53:07;101245.13;;;21.32;100.00
15308;BME280;7755;52.208;6.964;2023-08-12T02:57:10;101239.59;;;21.32;100.00
15308;BME280;7755;52.208;6.964;2023-08-12T03:01:15;101244.31;;;21.32;100.00
15308;BME280;7755;52.208;6.964;2023-08-12T03:05:18;101238.81;;;21.26;100.00
15308;BME280;7755;52.208;6.964;2023-08-12T03:09:21;101238.28;;;21.30;100.00
15308;BME280;7755;52.208;6.964;2023-08-12T03:13:24;101234.38;;;21.31;100.00
15308;BME280;7755;52.208;6.964;2023-08-12T03:17:29;101240.97;;;21.35;100.00
15308;BME280;7755;52.208;6.964;2023-08-12T03:21:32;101241.47;;;21.37;100.00
15308;BME280;7755;52.208;6.964;2023-08-12T03:25:36;101232.69;;;21.35;100.00
15308;BME280;7755;52.208;6.964;2023-08-12T03:29:39;101229.28;;;21.38;100.00
15308;BME280;7755;52.208;6.964;2023-08-12T03:33:44;101217.72;;;21.36;100.00
15308;BME280;7755;52.208;6.964;2023-08-12T03:37:48;101224.66;;;21.33;100.00
15308;BME280;7755;52.208;6.964;2023-08-12T03:41:53;101215.25;;;21.34;100.00
15308;BME280;7755;52.208;6.964;2023-08-12T03:45:56;101217.41;;;21.37;100.00
15308;BME280;7755;52.208;6.964;2023-08-12T03:50:02;101208.88;;;21.34;100.00
15308;BME280;7755;52.208;6.964;2023-08-12T03:54:06;101211.94;;;21.32;100.00
15308;BME280;7755;52.208;6.964;2023-08-12T03:58:10;101214.41;;;21.34;100.00
15308;BME280;7755;52.208;6.964;2023-08-12T04:02:12;101209.72;;;21.34;100.00
15308;BME280;7755;52.208;6.964;2023-08-12T04:06:17;101206.22;;;21.29;100.00
15308;BME280;7755;52.208;6.964;2023-08-12T04:10:20;101200.47;;;21.20;100.00
15308;BME280;7755;52.208;6.964;2023-08-12T04:14:23;101205.81;;;21.16;100.00
15308;BME280;7755;52.208;6.964;2023-08-12T04:18:25;101200.03;;;21.13;100.00
15308;BME280;7755;52.208;6.964;2023-08-12T04:22:30;101188.78;;;21.09;100.00
15308;BME280;7755;52.208;6.964;2023-08-12T04:26:33;101194.88;;;21.06;100.00
15308;BME280;7755;52.208;6.964;2023-08-12T04:30:36;101192.13;;;21.06;100.00
15308;BME280;7755;52.208;6.964;2023-08-12T04:34:43;101188.53;;;21.06;100.00
15308;BME280;7755;52.208;6.964;2023-08-12T04:38:48;101173.31;;;21.08;100.00
15308;BME280;7755;52.208;6.964;2023-08-12T04:42:52;101163.06;;;21.09;100.00
15308;BME280;7755;52.208;6.964;2023-08-12T04:46:56;101158.34;;;21.09;100.00
15308;BME280;7755;52.208;6.964;2023-08-12T04:50:59;101163.56;;;21.11;100.00
15308;BME280;7755;52.208;6.964;2023-08-12T04:55:05;101161.31;;;21.13;100.00
15308;BME280;7755;52.208;6.964;2023-08-12T04:59:08;101158.28;;;21.14;100.00
15308;BME280;7755;52.208;6.964;2023-08-12T05:03:12;101144.22;;;21.11;100.00
15308;BME280;7755;52.208;6.964;2023-08-12T05:07:15;101150.06;;;21.09;100.00
15308;BME280;7755;52.208;6.964;2023-08-12T05:11:20;101153.66;;;21.10;100.00
15308;BME280;7755;52.208;6.964;2023-08-12T05:15:23;101146.16;;;21.10;100.00
15308;BME280;7755;52.208;6.964;2023-08-12T05:19:26;101145.84;;;21.12;100.00
15308;BME280;7755;52.208;6.964;2023-08-12T05:23:29;101139.00;;;21.09;100.00
15308;BME280;7755;52.208;6.964;2023-08-12T05:27:34;101135.19;;;21.05;100.00
15308;BME280;7755;52.208;6.964;2023-08-12T05:31:37;101132.50;;;21.00;100.00
15308;BME280;7755;52.208;6.964;2023-08-12T05:35:40;101117.13;;;20.94;100.00
15308;BME280;7755;52.208;6.964;2023-08-12T05:39:43;101115.47;;;20.93;100.00
15308;BME280;7755;52.208;6.964;2023-08-12T05:43:48;101119.78;;;20.99;100.00
15308;BME280;7755;52.208;6.964;2023-08-12T05:47:51;101125.03;;;21.01;100.00
15308;BME280;7755;52.208;6.964;2023-08-12T05:51:54;101115.81;;;21.05;100.00
15308;BME280;7755;52.208;6.964;2023-08-12T05:55:57;101119.63;;;21.09;100.00
15308;BME280;7755;52.208;6.964;2023-08-12T06:00:01;101122.16;;;21.24;100.00
15308;BME280;7755;52.208;6.964;2023-08-12T06:04:11;101118.06;;;21.41;100.00
15308;BME280;7755;52.208;6.964;2023-08-12T06:08:14;101111.19;;;21.52;100.00
15308;BME280;7755;52.208;6.964;2023-08-12T06:12:17;101117.88;;;21.65;100.00
15308;BME280;7755;52.208;6.964;2023-08-12T06:16:22;101106.84;;;21.78;100.00
15308;BME280;7755;52.208;6.964;2023-08-12T06:20:25;101108.88;;;21.87;100.00
15308;BME280;7755;52.208;6.964;2023-08-12T06:24:28;101111.47;;;21.97;100.00
15308;BME280;7755;52.208;6.964;2023-08-12T06:28:31;101107.75;;;22.01;100.00
15308;BME280;7755;52.208;6.964;2023-08-12T06:32:36;101099.97;;;22.03;100.00
15308;BME280;7755;52.208;6.964;2023-08-12T06:36:39;101094.38;;;22.09;100.00
15308;BME280;7755;52.208;6.964;2023-08-12T06:40:42;101098.22;;;22.07;100.00
15308;BME280;7755;52.208;6.964;2023-08-12T06:44:45;101102.69;;;22.09;100.00
15308;BME280;7755;52.208;6.964;2023-08-12T06:48:49;101095.88;;;22.01;100.00
15308;BME280;7755;52.208;6.964;2023-08-12T06:52:52;101099.03;;;21.94;100.00
15308;BME280;7755;52.208;6.964;2023-08-12T06:56:55;101088.38;;;21.88;100.00
15308;BME280;7755;52.208;6.964;2023-08-12T07:00:58;101107.66;;;21.79;100.00
15308;BME280;7755;52.208;6.964;2023-08-12T07:05:03;101104.16;;;21.73;100.00
15308;BME280;7755;52.208;6.964;2023-08-12T07:09:06;101104.56;;;21.67;100.00
15308;BME280;7755;52.208;6.964;2023-08-12T07:13:09;101103.22;;;21.64;100.00
15308;BME280;7755;52.208;6.964;2023-08-12T07:17:12;101085.16;;;21.53;100.00
15308;BME280;7755;52.208;6.964;2023-08-12T07:21:16;101066.91;;;21.38;100.00
15308;BME280;7755;52.208;6.964;2023-08-12T07:25:19;101073.66;;;21.32;100.00
15308;BME280;7755;52.208;6.964;2023-08-12T07:29:22;101064.03;;;21.30;100.00
15308;BME280;7755;52.208;6.964;2023-08-12T07:33:25;101064.97;;;21.20;100.00
15308;BME280;7755;52.208;6.964;2023-08-12T07:37:29;101082.41;;;21.20;100.00
15308;BME280;7755;52.208;6.964;2023-08-12T07:41:32;101084.63;;;21.18;100.00
15308;BME280;7755;52.208;6.964;2023-08-12T07:45:35;101077.78;;;21.16;100.00
15308;BME280;7755;52.208;6.964;2023-08-12T07:49:38;101078.47;;;21.08;100.00
15308;BME280;7755;52.208;6.964;2023-08-12T07:53:42;101070.25;;;21.03;100.00
15308;BME280;7755;52.208;6.964;2023-08-12T07:57:45;101075.47;;;21.04;100.00
15308;BME280;7755;52.208;6.964;2023-08-12T08:01:48;101071.38;;;21.02;100.00
15308;BME280;7755;52.208;6.964;2023-08-12T08:05:51;101061.44;;;21.01;100.00
15308;BME280;7755;52.208;6.964;2023-08-12T08:09:56;101046.28;;;20.98;100.00
15308;BME280;7755;52.208;6.964;2023-08-12T08:13:59;101052.09;;;20.96;100.00
15308;BME280;7755;52.208;6.964;2023-08-12T08:18:02;101043.81;;;20.96;100.00
15308;BME280;7755;52.208;6.964;2023-08-12T08:22:06;101034.28;;;20.89;100.00
15308;BME280;7755;52.208;6.964;2023-08-12T08:26:11;101034.47;;;20.92;100.00
15308;BME280;7755;52.208;6.964;2023-08-12T08:30:14;101024.84;;;20.90;100.00
15308;BME280;7755;52.208;6.964;2023-08-12T08:34:17;101023.97;;;20.94;100.00
15308;BME280;7755;52.208;6.964;2023-08-12T08:38:20;101027.66;;;21.04;100.00
15308;BME280;7755;52.208;6.964;2023-08-12T08:42:25;101028.59;;;21.13;100.00
15308;BME280;7755;52.208;6.964;2023-08-12T08:46:29;101021.03;;;21.18;100.00
15308;BME280;7755;52.208;6.964;2023-08-12T08:50:32;101017.38;;;21.23;100.00
15308;BME280;7755;52.208;6.964;2023-08-12T08:54:35;101010.50;;;21.20;100.00
15308;BME280;7755;52.208;6.964;2023-08-12T08:58:40;101012.28;;;21.30;100.00
15308;BME280;7755;52.208;6.964;2023-08-12T09:02:44;101005.72;;;21.40;100.00
15308;BME280;7755;52.208;6.964;2023-08-12T09:06:47;101007.50;;;21.49;100.00
15308;BME280;7755;52.208;6.964;2023-08-12T09:10:52;101003.69;;;21.59;100.00
15308;BME280;7755;52.208;6.964;2023-08-12T09:14:57;100994.25;;;21.60;100.00
15308;BME280;7755;52.208;6.964;2023-08-12T09:19:00;100990.69;;;21.60;100.00
15308;BME280;7755;52.208;6.964;2023-08-12T09:23:03;100993.44;;;21.60;100.00
15308;BME280;7755;52.208;6.964;2023-08-12T09:27:06;101003.19;;;21.57;100.00
15308;BME280;7755;52.208;6.964;2023-08-12T09:31:21;100995.81;;;21.52;100.00
15308;BME280;7755;52.208;6.964;2023-08-12T09:35:32;100998.06;;;21.50;100.00
15308;BME280;7755;52.208;6.964;2023-08-12T09:39:36;101007.91;;;21.57;100.00
15308;BME280;7755;52.208;6.964;2023-08-12T09:43:40;100989.53;;;21.61;100.00
15308;BME280;7755;52.208;6.964;2023-08-12T09:47:45;100992.53;;;21.64;100.00
15308;BME280;7755;52.208;6.964;2023-08-12T09:51:50;100995.63;;;21.63;100.00
15308;BME280;7755;52.208;6.964;2023-08-12T09:55:54;100997.84;;;21.61;100.00
15308;BME280;7755;52.208;6.964;2023-08-12T10:00:00;101000.53;;;21.66;100.00
15308;BME280;7755;52.208;6.964;2023-08-12T10:04:11;101004.41;;;21.65;100.00
15308;BME280;7755;52.208;6.964;2023-08-12T10:08:15;100993.75;;;21.72;100.00
15308;BME280;7755;52.208;6.964;2023-08-12T10:12:18;100987.00;;;21.78;100.00
15308;BME280;7755;52.208;6.964;2023-08-12T10:16:22;100989.34;;;21.85;100.00
15308;BME280;7755;52.208;6.964;2023-08-12T10:20:27;100997.88;;;21.88;100.00
15308;BME280;7755;52.208;6.964;2023-08-12T10:24:33;100986.38;;;22.09;100.00
15308;BME280;7755;52.208;6.964;2023-08-12T10:28:37;100988.28;;;22.22;100.00
15308;BME280;7755;52.208;6.964;2023-08-12T10:32:40;100981.69;;;22.31;100.00
15308;BME280;7755;52.208;6.964;2023-08-12T10:36:44;100996.16;;;22.28;100.00
15308;BME280;7755;52.208;6.964;2023-08-12T10:41:24;100989.34;;;22.34;100.00
15308;BME280;7755;52.208;6.964;2023-08-12T10:45:41;100996.13;;;22.42;100.00
15308;BME280;7755;52.208;6.964;2023-08-12T10:49:48;100994.28;;;22.38;100.00
15308;BME280;7755;52.208;6.964;2023-08-12T10:53:52;101000.59;;;22.29;100.00
15308;BME280;7755;52.208;6.964;2023-08-12T10:58:24;101006.22;;;22.24;100.00
15308;BME280;7755;52.208;6.964;2023-08-12T11:02:29;100998.34;;;22.18;100.00
15308;BME280;7755;52.208;6.964;2023-08-12T11:06:43;100997.91;;;22.24;100.00
15308;BME280;7755;52.208;6.964;2023-08-12T11:10:47;100990.06;;;22.40;100.00
15308;BME280;7755;52.208;6.964;2023-08-12T11:14:53;100986.84;;;22.69;100.00
15308;BME280;7755;52.208;6.964;2023-08-12T11:18:57;100986.91;;;22.92;100.00
15308;BME280;7755;52.208;6.964;2023-08-12T11:23:00;100968.59;;;23.13;100.00
15308;BME280;7755;52.208;6.964;2023-08-12T11:27:04;100981.44;;;23.40;100.00
15308;BME280;7755;52.208;6.964;2023-08-12T11:31:08;100979.13;;;23.64;100.00
15308;BME280;7755;52.208;6.964;2023-08-12T11:35:12;100982.19;;;23.63;100.00
15308;BME280;7755;52.208;6.964;2023-08-12T11:39:15;100985.03;;;23.72;100.00
15308;BME280;7755;52.208;6.964;2023-08-12T11:43:22;100994.53;;;23.96;100.00
15308;BME280;7755;52.208;6.964;2023-08-12T11:47:25;100995.56;;;24.18;100.00
15308;BME280;7755;52.208;6.964;2023-08-12T11:51:28;100998.03;;;24.28;100.00
15308;BME280;7755;52.208;6.964;2023-08-12T11:55:31;101001.34;;;24.39;100.00
15308;BME280;7755;52.208;6.964;2023-08-12T11:59:36;100996.28;;;24.41;100.00
15308;BME280;7755;52.208;6.964;2023-08-12T12:03:40;101000.00;;;24.28;100.00
15308;BME280;7755;52.208;6.964;2023-08-12T12:07:44;101009.53;;;24.53;100.00
15308;BME280;7755;52.208;6.964;2023-08-12T12:11:52;101011.16;;;24.62;100.00
15308;BME280;7755;52.208;6.964;2023-08-12T12:15:57;101013.75;;;24.59;100.00
15308;BME280;7755;52.208;6.964;2023-08-12T12:20:00;101014.25;;;24.61;100.00
15308;BME280;7755;52.208;6.964;2023-08-12T12:24:04;101009.00;;;24.50;100.00
15308;BME280;7755;52.208;6.964;2023-08-12T12:28:07;101017.38;;;24.68;100.00
15308;BME280;7755;52.208;6.964;2023-08-12T12:32:12;101011.28;;;25.09;100.00
15308;BME280;7755;52.208;6.964;2023-08-12T12:36:15;101024.97;;;25.31;100.00
15308;BME280;7755;52.208;6.964;2023-08-12T12:40:18;101026.94;;;25.31;100.00
15308;BME280;7755;52.208;6.964;2023-08-12T12:44:21;101016.50;;;25.57;100.00
15308;BME280;7755;52.208;6.964;2023-08-12T12:48:26;101023.84;;;26.00;99.49
15308;BME280;7755;52.208;6.964;2023-08-12T12:52:28;101032.59;;;26.20;93.66
15308;BME280;7755;52.208;6.964;2023-08-12T12:56:31;101044.69;;;26.03;89.17
15308;BME280;7755;52.208;6.964;2023-08-12T13:00:34;101035.16;;;25.66;92.45
15308;BME280;7755;52.208;6.964;2023-08-12T13:04:39;101036.19;;;25.52;94.31
15308;BME280;7755;52.208;6.964;2023-08-12T13:08:41;101036.97;;;25.62;94.48
15308;BME280;7755;52.208;6.964;2023-08-12T13:12:44;101035.63;;;25.76;92.85
15308;BME280;7755;52.208;6.964;2023-08-12T13:16:47;101039.84;;;26.12;92.39
15308;BME280;7755;52.208;6.964;2023-08-12T13:20:52;101047.72;;;26.39;92.47
15308;BME280;7755;52.208;6.964;2023-08-12T13:24:54;101041.50;;;26.34;86.73
15308;BME280;7755;52.208;6.964;2023-08-12T13:28:58;101051.63;;;26.18;86.39
15308;BME280;7755;52.208;6.964;2023-08-12T13:33:01;101044.78;;;26.15;88.39
15308;BME280;7755;52.208;6.964;2023-08-12T13:37:05;101044.50;;;26.08;83.92
15308;BME280;7755;52.208;6.964;2023-08-12T13:41:08;101063.09;;;25.86;83.99
15308;BME280;7755;52.208;6.964;2023-08-12T13:45:11;101056.75;;;25.77;81.28
15308;BME280;7755;52.208;6.964;2023-08-12T13:49:14;101055.53;;;25.96;79.46
15308;BME280;7755;52.208;6.964;2023-08-12T13:53:18;101059.88;;;25.76;77.43
15308;BME280;7755;52.208;6.964;2023-08-12T13:57:21;101067.41;;;25.67;77.56
15308;BME280;7755;52.208;6.964;2023-08-12T14:01:24;101061.38;;;25.65;74.87
15308;BME280;7755;52.208;6.964;2023-08-12T14:05:27;101070.25;;;25.58;75.06
15308;BME280;7755;52.208;6.964;2023-08-12T14:09:33;101081.41;;;25.49;74.83
15308;BME280;7755;52.208;6.964;2023-08-12T14:13:36;101084.09;;;25.28;75.16
15308;BME280;7755;52.208;6.964;2023-08-12T14:17:38;101078.84;;;25.27;74.66
15308;BME280;7755;52.208;6.964;2023-08-12T14:21:43;101080.66;;;25.23;74.44
15308;BME280;7755;52.208;6.964;2023-08-12T14:25:47;101078.38;;;25.16;66.11
15308;BME280;7755;52.208;6.964;2023-08-12T14:29:50;101083.75;;;25.13;66.81
15308;BME280;7755;52.208;6.964;2023-08-12T14:33:53;101095.22;;;25.11;65.01
15308;BME280;7755;52.208;6.964;2023-08-12T14:37:56;101095.72;;;25.22;67.45
15308;BME280;7755;52.208;6.964;2023-08-12T14:42:00;101090.00;;;25.10;65.43
15308;BME280;7755;52.208;6.964;2023-08-12T14:46:04;101091.75;;;25.31;69.15
15308;BME280;7755;52.208;6.964;2023-08-12T14:50:09;101095.84;;;25.43;66.00
15308;BME280;7755;52.208;6.964;2023-08-12T14:54:11;101092.38;;;25.46;68.54
15308;BME280;7755;52.208;6.964;2023-08-12T14:58:16;101091.34;;;25.76;67.83
15308;BME280;7755;52.208;6.964;2023-08-12T15:02:20;101092.06;;;25.94;69.72
15308;BME280;7755;52.208;6.964;2023-08-12T15:06:24;101099.00;;;25.88;67.63
15308;BME280;7755;52.208;6.964;2023-08-12T15:10:27;101098.53;;;25.77;63.81
15308;BME280;7755;52.208;6.964;2023-08-12T15:14:32;101095.72;;;25.86;65.89
15308;BME280;7755;52.208;6.964;2023-08-12T15:18:35;101091.25;;;25.94;64.46
15308;BME280;7755;52.208;6.964;2023-08-12T15:22:37;101087.81;;;25.97;63.36
15308;BME280;7755;52.208;6.964;2023-08-12T15:26:40;101093.22;;;26.02;64.33
15308;BME280;7755;52.208;6.964;2023-08-12T15:30:47;101094.16;;;26.06;61.94
15308;BME280;7755;52.208;6.964;2023-08-12T15:34:50;101100.28;;;25.91;61.05
15308;BME280;7755;52.208;6.964;2023-08-12T15:38:53;101092.47;;;25.67;61.20
15308;BME280;7755;52.208;6.964;2023-08-12T15:42:56;101107.72;;;25.69;61.60
15308;BME280;7755;52.208;6.964;2023-08-12T15:47:00;101096.75;;;25.73;63.20
15308;BME280;7755;52.208;6.964;2023-08-12T15:51:03;101097.34;;;25.87;63.07
15308;BME280;7755;52.208;6.964;2023-08-12T15:55:06;101099.53;;;25.64;61.64
15308;BME280;7755;52.208;6.964;2023-08-12T15:59:09;101100.72;;;25.46;63.35
15308;BME280;7755;52.208;6.964;2023-08-12T16:03:15;101104.53;;;25.32;64.19
15308;BME280;7755;52.208;6.964;2023-08-12T16:07:18;101091.94;;;25.18;65.87
15308;BME280;7755;52.208;6.964;2023-08-12T16:11:21;101100.31;;;25.18;68.58
15308;BME280;7755;52.208;6.964;2023-08-12T16:15:24;101098.00;;;25.28;65.76
15308;BME280;7755;52.208;6.964;2023-08-12T16:19:28;101087.00;;;25.32;65.83
15308;BME280;7755;52.208;6.964;2023-08-12T16:23:31;101094.59;;;25.14;66.38
15308;BME280;7755;52.208;6.964;2023-08-12T16:27:34;101096.25;;;25.07;68.50
15308;BME280;7755;52.208;6.964;2023-08-12T16:31:37;101096.38;;;24.93;66.87
15308;BME280;7755;52.208;6.964;2023-08-12T16:35:44;101097.50;;;24.92;67.42
15308;BME280;7755;52.208;6.964;2023-08-12T16:39:49;101099.81;;;24.81;65.71
15308;BME280;7755;52.208;6.964;2023-08-12T16:43:52;101095.22;;;24.76;64.87
15308;BME280;7755;52.208;6.964;2023-08-12T16:47:55;101110.44;;;24.79;63.82
15308;BME280;7755;52.208;6.964;2023-08-12T16:51:59;101093.09;;;24.82;63.79
15308;BME280;7755;52.208;6.964;2023-08-12T16:56:03;101097.50;;;24.83;61.89
15308;BME280;7755;52.208;6.964;2023-08-12T17:00:07;101108.31;;;24.76;60.49
15308;BME280;7755;52.208;6.964;2023-08-12T17:04:10;101105.53;;;24.67;60.97
15308;BME280;7755;52.208;6.964;2023-08-12T17:08:15;101106.00;;;24.61;60.81
15308;BME280;7755;52.208;6.964;2023-08-12T17:12:18;101109.59;;;24.53;61.42
15308;BME280;7755;52.208;6.964;2023-08-12T17:16:20;101108.75;;;24.35;60.89
15308;BME280;7755;52.208;6.964;2023-08-12T17:20:23;101107.84;;;24.17;61.84
15308;BME280;7755;52.208;6.964;2023-08-12T17:24:29;101109.31;;;24.14;62.58
15308;BME280;7755;52.208;6.964;2023-08-12T17:28:31;101116.34;;;24.12;63.60
15308;BME280;7755;52.208;6.964;2023-08-12T17:32:34;101125.16;;;24.05;63.28
15308;BME280;7755;52.208;6.964;2023-08-12T17:36:37;101132.22;;;23.80;62.09
15308;BME280;7755;52.208;6.964;2023-08-12T17:40:41;101129.22;;;23.68;63.20
15308;BME280;7755;52.208;6.964;2023-08-12T17:44:45;101134.66;;;23.51;62.72
15308;BME280;7755;52.208;6.964;2023-08-12T17:48:48;101136.19;;;23.43;63.78
15308;BME280;7755;52.208;6.964;2023-08-12T17:52:51;101145.78;;;23.37;64.33
15308;BME280;7755;52.208;6.964;2023-08-12T17:56:55;101153.44;;;23.31;65.25
15308;BME280;7755;52.208;6.964;2023-08-12T18:00:58;101154.25;;;23.32;66.64
15308;BME280;7755;52.208;6.964;2023-08-12T18:05:01;101152.91;;;23.29;67.81
15308;BME280;7755;52.208;6.964;2023-08-12T18:09:04;101165.47;;;23.27;68.55
15308;BME280;7755;52.208;6.964;2023-08-12T18:13:11;101163.34;;;23.24;69.23
15308;BME280;7755;52.208;6.964;2023-08-12T18:17:14;101173.53;;;23.14;69.67
15308;BME280;7755;52.208;6.964;2023-08-12T18:21:17;101178.31;;;23.00;69.19
15308;BME280;7755;52.208;6.964;2023-08-12T18:25:20;101187.97;;;22.89;68.79
15308;BME280;7755;52.208;6.964;2023-08-12T18:29:26;101191.41;;;22.86;69.53
15308;BME280;7755;52.208;6.964;2023-08-12T18:33:28;101198.66;;;22.82;70.38
15308;BME280;7755;52.208;6.964;2023-08-12T18:37:31;101206.56;;;22.75;71.33
15308;BME280;7755;52.208;6.964;2023-08-12T18:41:34;101204.03;;;22.65;71.47
15308;BME280;7755;52.208;6.964;2023-08-12T18:45:39;101205.59;;;22.57;71.62
15308;BME280;7755;52.208;6.964;2023-08-12T18:49:42;101209.38;;;22.47;72.01
15308;BME280;7755;52.208;6.964;2023-08-12T18:53:44;101212.53;;;22.41;73.07
15308;BME280;7755;52.208;6.964;2023-08-12T18:57:48;101218.72;;;22.38;73.94
15308;BME280;7755;52.208;6.964;2023-08-12T19:01:52;101211.31;;;22.33;74.30
15308;BME280;7755;52.208;6.964;2023-08-12T19:05:56;101221.38;;;22.29;75.23
15308;BME280;7755;52.208;6.964;2023-08-12T19:09:59;101224.16;;;22.15;75.53
15308;BME280;7755;52.208;6.964;2023-08-12T19:14:02;101222.03;;;22.07;76.13
15308;BME280;7755;52.208;6.964;2023-08-12T19:18:07;101230.53;;;21.97;76.99
15308;BME280;7755;52.208;6.964;2023-08-12T19:22:10;101235.66;;;21.90;78.17
15308;BME280;7755;52.208;6.964;2023-08-12T19:26:13;101240.22;;;21.80;79.04
15308;BME280;7755;52.208;6.964;2023-08-12T19:30:16;101243.16;;;21.70;80.49
15308;BME280;7755;52.208;6.964;2023-08-12T19:34:21;101257.69;;;21.62;81.58
15308;BME280;7755;52.208;6.964;2023-08-12T19:38:24;101253.94;;;21.53;82.51
15308;BME280;7755;52.208;6.964;2023-08-12T19:42:27;101250.22;;;21.44;83.57
15308;BME280;7755;52.208;6.964;2023-08-12T19:46:30;101251.28;;;21.29;84.86
15308;BME280;7755;52.208;6.964;2023-08-12T19:50:34;101249.75;;;21.18;86.48
15308;BME280;7755;52.208;6.964;2023-08-12T19:54:38;101258.19;;;21.08;87.40
15308;BME280;7755;52.208;6.964;2023-08-12T19:58:41;101260.56;;;20.95;88.26
15308;BME280;7755;52.208;6.964;2023-08-12T20:02:44;101259.03;;;20.84;89.56
15308;BME280;7755;52.208;6.964;2023-08-12T20:06:48;101250.34;;;20.72;90.27
15308;BME280;7755;52.208;6.964;2023-08-12T20:10:51;101260.78;;;20.56;91.12
15308;BME280;7755;52.208;6.964;2023-08-12T20:14:54;101260.63;;;20.42;92.03
15308;BME280;7755;52.208;6.964;2023-08-12T20:18:57;101271.53;;;20.29;92.74
15308;BME280;7755;52.208;6.964;2023-08-12T20:23:02;101259.75;;;20.18;94.14
15308;BME280;7755;52.208;6.964;2023-08-12T20:27:07;101265.09;;;20.09;95.07
15308;BME280;7755;52.208;6.964;2023-08-12T20:31:10;101259.44;;;19.96;95.84
15308;BME280;7755;52.208;6.964;2023-08-12T20:35:13;101272.25;;;19.81;97.03
15308;BME280;7755;52.208;6.964;2023-08-12T20:39:17;101265.75;;;19.67;98.08
15308;BME280;7755;52.208;6.964;2023-08-12T20:43:20;101258.91;;;19.54;99.23
15308;BME280;7755;52.208;6.964;2023-08-12T20:47:23;101264.75;;;19.48;100.00
15308;BME280;7755;52.208;6.964;2023-08-12T20:51:26;101258.69;;;19.46;100.00
15308;BME280;7755;52.208;6.964;2023-08-12T20:55:30;101252.63;;;19.44;100.00
15308;BME280;7755;52.208;6.964;2023-08-12T20:59:33;101254.06;;;19.36;100.00
15308;BME280;7755;52.208;6.964;2023-08-12T21:03:36;101261.53;;;19.30;100.00
15308;BME280;7755;52.208;6.964;2023-08-12T21:07:40;101258.28;;;19.23;100.00
15308;BME280;7755;52.208;6.964;2023-08-12T21:11:44;101253.63;;;19.19;100.00
15308;BME280;7755;52.208;6.964;2023-08-12T21:15:47;101250.59;;;19.15;100.00
15308;BME280;7755;52.208;6.964;2023-08-12T21:19:50;101239.59;;;19.10;100.00